sensor_id;sensor_type;location;lat;lon;timestamp;P1;durP1;ratioP1;P2;durP2;ratioP2
10299;SDS011;5195;48.562;9.192;2023-05-10T00:00:54;1.60;;;1.30;;
10299;SDS011;5195;48.562;9.192;2023-05-10T00:03:21;1.37;;;1.07;;
10299;SDS011;5195;48.562;9.192;2023-05-10T00:05:48;1.10;;;1.10;;
10299;SDS011;5195;48.562;9.192;2023-05-10T00:08:14;2.60;;;1.40;;
10299;SDS011;5195;48.562;9.192;2023-05-10T00:10:39;2.17;;;1.00;;
10299;SDS011;5195;48.562;9.192;2023-05-10T00:13:06;2.80;;;0.80;;
10299;SDS011;5195;48.562;9.192;2023-05-10T00:15:31;1.80;;;0.80;;
10299;SDS011;5195;48.562;9.192;2023-05-10T00:17:57;1.93;;;0.80;;
10299;SDS011;5195;48.562;9.192;2023-05-10T00:20:23;1.77;;;1.10;;
10299;SDS011;5195;48.562;9.192;2023-05-10T00:22:49;0.93;;;0.90;;
10299;SDS011;5195;48.562;9.192;2023-05-10T00:25:15;1.75;;;0.90;;
10299;SDS011;5195;48.562;9.192;2023-05-10T00:27:42;1.57;;;0.93;;
10299;SDS011;5195;48.562;9.192;2023-05-10T00:30:07;1.10;;;0.87;;
10299;SDS011;5195;48.562;9.192;2023-05-10T00:32:34;1.50;;;0.82;;
10299;SDS011;5195;48.562;9.192;2023-05-10T00:34:59;1.10;;;0.90;;
10299;SDS011;5195;48.562;9.192;2023-05-10T00:37:26;1.23;;;0.80;;
10299;SDS011;5195;48.562;9.192;2023-05-10T00:39:51;0.87;;;0.70;;
10299;SDS011;5195;48.562;9.192;2023-05-10T00:42:17;0.70;;;0.70;;
10299;SDS011;5195;48.562;9.192;2023-05-10T00:44:42;1.40;;;0.60;;
10299;SDS011;5195;48.562;9.192;2023-05-10T00:47:09;0.83;;;0.70;;
10299;SDS011;5195;48.562;9.192;2023-05-10T00:49:34;0.70;;;0.70;;
10299;SDS011;5195;48.562;9.192;2023-05-10T00:52:00;1.07;;;0.60;;
10299;SDS011;5195;48.562;9.192;2023-05-10T00:54:27;1.20;;;0.73;;
10299;SDS011;5195;48.562;9.192;2023-05-10T00:56:53;0.67;;;0.50;;
10299;SDS011;5195;48.562;9.192;2023-05-10T00:59:19;2.70;;;0.60;;
10299;SDS011;5195;48.562;9.192;2023-05-10T01:01:46;0.70;;;0.50;;
10299;SDS011;5195;48.562;9.192;2023-05-10T01:04:11;0.45;;;0.45;;
10299;SDS011;5195;48.562;9.192;2023-05-10T01:06:37;2.13;;;0.50;;
10299;SDS011;5195;48.562;9.192;2023-05-10T01:09:03;0.43;;;0.43;;
10299;SDS011;5195;48.562;9.192;2023-05-10T01:11:29;0.40;;;0.40;;
10299;SDS011;5195;48.562;9.192;2023-05-10T01:13:55;0.40;;;0.40;;
10299;SDS011;5195;48.562;9.192;2023-05-10T01:16:20;1.07;;;0.53;;
10299;SDS011;5195;48.562;9.192;2023-05-10T01:18:46;0.50;;;0.50;;
10299;SDS011;5195;48.562;9.192;2023-05-10T01:26:46;1.50;;;0.50;;
10299;SDS011;5195;48.562;9.192;2023-05-10T01:29:12;2.80;;;0.50;;
10299;SDS011;5195;48.562;9.192;2023-05-10T01:31:53;0.70;;;0.43;;
10299;SDS011;5195;48.562;9.192;2023-05-10T01:34:27;1.77;;;0.55;;
10299;SDS011;5195;48.562;9.192;2023-05-10T01:36:51;0.40;;;0.40;;
10299;SDS011;5195;48.562;9.192;2023-05-10T01:39:24;0.30;;;0.30;;
10299;SDS011;5195;48.562;9.192;2023-05-10T01:41:50;0.90;;;0.47;;
10299;SDS011;5195;48.562;9.192;2023-05-10T01:44:16;0.93;;;0.57;;
10299;SDS011;5195;48.562;9.192;2023-05-10T01:46:41;2.20;;;0.52;;
10299;SDS011;5195;48.562;9.192;2023-05-10T01:49:11;1.13;;;0.43;;
10299;SDS011;5195;48.562;9.192;2023-05-10T01:51:38;0.40;;;0.40;;
10299;SDS011;5195;48.562;9.192;2023-05-10T01:54:02;1.00;;;0.40;;
10299;SDS011;5195;48.562;9.192;2023-05-10T01:56:28;1.10;;;0.40;;
10299;SDS011;5195;48.562;9.192;2023-05-10T01:58:52;0.20;;;0.20;;
10299;SDS011;5195;48.562;9.192;2023-05-10T02:01:18;0.40;;;0.27;;
10299;SDS011;5195;48.562;9.192;2023-05-10T02:03:43;0.30;;;0.30;;
10299;SDS011;5195;48.562;9.192;2023-05-10T02:06:10;1.00;;;0.30;;
10299;SDS011;5195;48.562;9.192;2023-05-10T02:08:36;0.10;;;0.10;;
10299;SDS011;5195;48.562;9.192;2023-05-10T02:11:01;0.35;;;0.30;;
10299;SDS011;5195;48.562;9.192;2023-05-10T02:13:27;0.20;;;0.20;;
10299;SDS011;5195;48.562;9.192;2023-05-10T02:15:54;0.33;;;0.20;;
10299;SDS011;5195;48.562;9.192;2023-05-10T02:18:20;0.75;;;0.32;;
10299;SDS011;5195;48.562;9.192;2023-05-10T02:20:46;0.97;;;0.23;;
10299;SDS011;5195;48.562;9.192;2023-05-10T02:23:11;0.83;;;0.20;;
10299;SDS011;5195;48.562;9.192;2023-05-10T02:25:37;1.17;;;0.30;;
10299;SDS011;5195;48.562;9.192;2023-05-10T02:28:03;0.93;;;0.30;;
10299;SDS011;5195;48.562;9.192;2023-05-10T02:30:28;1.80;;;0.37;;
10299;SDS011;5195;48.562;9.192;2023-05-10T02:32:54;0.70;;;0.23;;
10299;SDS011;5195;48.562;9.192;2023-05-10T02:35:19;0.50;;;0.33;;
10299;SDS011;5195;48.562;9.192;2023-05-10T02:37:45;0.83;;;0.43;;
10299;SDS011;5195;48.562;9.192;2023-05-10T02:40:11;0.65;;;0.30;;
10299;SDS011;5195;48.562;9.192;2023-05-10T02:42:37;1.10;;;0.30;;
10299;SDS011;5195;48.562;9.192;2023-05-10T02:45:03;2.30;;;0.40;;
10299;SDS011;5195;48.562;9.192;2023-05-10T02:47:30;0.90;;;0.40;;
10299;SDS011;5195;48.562;9.192;2023-05-10T02:50:00;0.60;;;0.60;;
10299;SDS011;5195;48.562;9.192;2023-05-10T02:52:27;1.10;;;0.33;;
10299;SDS011;5195;48.562;9.192;2023-05-10T02:54:52;1.10;;;0.40;;
10299;SDS011;5195;48.562;9.192;2023-05-10T02:57:17;2.03;;;0.40;;
10299;SDS011;5195;48.562;9.192;2023-05-10T02:59:47;1.67;;;0.37;;
10299;SDS011;5195;48.562;9.192;2023-05-10T03:02:12;0.50;;;0.30;;
10299;SDS011;5195;48.562;9.192;2023-05-10T03:04:38;1.23;;;0.40;;
10299;SDS011;5195;48.562;9.192;2023-05-10T03:07:03;0.60;;;0.55;;
10299;SDS011;5195;48.562;9.192;2023-05-10T03:09:29;0.50;;;0.50;;
10299;SDS011;5195;48.562;9.192;2023-05-10T03:15:00;0.40;;;0.37;;
10299;SDS011;5195;48.562;9.192;2023-05-10T03:17:30;2.13;;;0.50;;
10299;SDS011;5195;48.562;9.192;2023-05-10T03:20:02;0.50;;;0.50;;
10299;SDS011;5195;48.562;9.192;2023-05-10T03:22:30;0.57;;;0.57;;
10299;SDS011;5195;48.562;9.192;2023-05-10T03:24:55;1.20;;;0.50;;
10299;SDS011;5195;48.562;9.192;2023-05-10T03:27:19;0.47;;;0.47;;
10299;SDS011;5195;48.562;9.192;2023-05-10T03:29:45;2.23;;;0.70;;
10299;SDS011;5195;48.562;9.192;2023-05-10T03:32:10;0.77;;;0.60;;
10299;SDS011;5195;48.562;9.192;2023-05-10T03:34:40;0.97;;;0.60;;
10299;SDS011;5195;48.562;9.192;2023-05-10T03:37:03;3.80;;;0.67;;
10299;SDS011;5195;48.562;9.192;2023-05-10T03:39:29;1.30;;;0.60;;
10299;SDS011;5195;48.562;9.192;2023-05-10T03:41:54;1.40;;;0.77;;
10299;SDS011;5195;48.562;9.192;2023-05-10T03:44:20;0.50;;;0.50;;
10299;SDS011;5195;48.562;9.192;2023-05-10T03:46:46;0.73;;;0.73;;
10299;SDS011;5195;48.562;9.192;2023-05-10T03:49:12;0.63;;;0.63;;
10299;SDS011;5195;48.562;9.192;2023-05-10T03:51:37;1.43;;;0.60;;
10299;SDS011;5195;48.562;9.192;2023-05-10T03:54:03;0.70;;;0.70;;
10299;SDS011;5195;48.562;9.192;2023-05-10T03:56:30;1.37;;;0.70;;
10299;SDS011;5195;48.562;9.192;2023-05-10T03:58:56;1.70;;;0.70;;
10299;SDS011;5195;48.562;9.192;2023-05-10T04:01:22;1.53;;;0.60;;
10299;SDS011;5195;48.562;9.192;2023-05-10T04:03:47;0.50;;;0.50;;
10299;SDS011;5195;48.562;9.192;2023-05-10T04:06:13;1.90;;;0.80;;
10299;SDS011;5195;48.562;9.192;2023-05-10T04:08:38;2.10;;;0.80;;
10299;SDS011;5195;48.562;9.192;2023-05-10T04:11:04;1.07;;;0.90;;
10299;SDS011;5195;48.562;9.192;2023-05-10T04:13:29;2.67;;;1.00;;
10299;SDS011;5195;48.562;9.192;2023-05-10T04:15:57;1.23;;;0.97;;
10299;SDS011;5195;48.562;9.192;2023-05-10T04:18:23;1.60;;;1.00;;
10299;SDS011;5195;48.562;9.192;2023-05-10T04:20:49;1.23;;;0.70;;
10299;SDS011;5195;48.562;9.192;2023-05-10T04:23:15;2.73;;;0.90;;
10299;SDS011;5195;48.562;9.192;2023-05-10T04:25:41;0.70;;;0.70;;
10299;SDS011;5195;48.562;9.192;2023-05-10T04:28:07;1.67;;;1.03;;
10299;SDS011;5195;48.562;9.192;2023-05-10T04:30:32;1.02;;;0.75;;
10299;SDS011;5195;48.562;9.192;2023-05-10T04:32:59;0.90;;;0.90;;
10299;SDS011;5195;48.562;9.192;2023-05-10T04:35:24;2.30;;;1.20;;
10299;SDS011;5195;48.562;9.192;2023-05-10T04:37:50;1.40;;;1.30;;
10299;SDS011;5195;48.562;9.192;2023-05-10T04:40:16;1.27;;;0.90;;
10299;SDS011;5195;48.562;9.192;2023-05-10T04:42:41;1.23;;;1.23;;
10299;SDS011;5195;48.562;9.192;2023-05-10T04:45:07;1.10;;;1.10;;
10299;SDS011;5195;48.562;9.192;2023-05-10T04:47:32;1.43;;;1.17;;
10299;SDS011;5195;48.562;9.192;2023-05-10T04:49:58;2.07;;;1.53;;
10299;SDS011;5195;48.562;9.192;2023-05-10T04:52:24;1.42;;;1.30;;
10299;SDS011;5195;48.562;9.192;2023-05-10T04:54:49;1.20;;;1.20;;
10299;SDS011;5195;48.562;9.192;2023-05-10T04:57:15;2.57;;;1.20;;
10299;SDS011;5195;48.562;9.192;2023-05-10T04:59:41;1.92;;;1.30;;
10299;SDS011;5195;48.562;9.192;2023-05-10T05:02:08;2.30;;;1.40;;
10299;SDS011;5195;48.562;9.192;2023-05-10T05:04:35;1.42;;;1.30;;
10299;SDS011;5195;48.562;9.192;2023-05-10T05:07:00;2.53;;;1.37;;
10299;SDS011;5195;48.562;9.192;2023-05-10T05:09:26;1.55;;;1.30;;
10299;SDS011;5195;48.562;9.192;2023-05-10T05:11:52;2.22;;;1.30;;
10299;SDS011;5195;48.562;9.192;2023-05-10T05:14:19;1.20;;;1.10;;
10299;SDS011;5195;48.562;9.192;2023-05-10T05:16:45;1.30;;;1.30;;
10299;SDS011;5195;48.562;9.192;2023-05-10T05:19:10;2.22;;;1.20;;
10299;SDS011;5195;48.562;9.192;2023-05-10T05:21:36;1.33;;;0.93;;
10299;SDS011;5195;48.562;9.192;2023-05-10T05:24:02;2.50;;;1.40;;
10299;SDS011;5195;48.562;9.192;2023-05-10T05:26:29;1.23;;;1.00;;
10299;SDS011;5195;48.562;9.192;2023-05-10T05:28:54;1.00;;;0.87;;
10299;SDS011;5195;48.562;9.192;2023-05-10T05:31:20;1.07;;;1.07;;
10299;SDS011;5195;48.562;9.192;2023-05-10T05:33:45;1.30;;;1.30;;
10299;SDS011;5195;48.562;9.192;2023-05-10T05:36:11;1.10;;;1.03;;
10299;SDS011;5195;48.562;9.192;2023-05-10T05:38:36;1.65;;;1.37;;
10299;SDS011;5195;48.562;9.192;2023-05-10T05:41:02;2.37;;;1.48;;
10299;SDS011;5195;48.562;9.192;2023-05-10T05:43:28;2.50;;;1.63;;
10299;SDS011;5195;48.562;9.192;2023-05-10T05:45:53;1.77;;;1.67;;
10299;SDS011;5195;48.562;9.192;2023-05-10T05:48:19;1.40;;;1.30;;
10299;SDS011;5195;48.562;9.192;2023-05-10T05:50:46;2.20;;;1.30;;
10299;SDS011;5195;48.562;9.192;2023-05-10T05:53:13;2.23;;;1.40;;
10299;SDS011;5195;48.562;9.192;2023-05-10T05:55:39;2.00;;;1.50;;
10299;SDS011;5195;48.562;9.192;2023-05-10T05:58:04;2.00;;;1.20;;
10299;SDS011;5195;48.562;9.192;2023-05-10T06:00:30;3.40;;;1.57;;
10299;SDS011;5195;48.562;9.192;2023-05-10T06:02:56;1.58;;;1.48;;
10299;SDS011;5195;48.562;9.192;2023-05-10T06:05:22;1.40;;;1.30;;
10299;SDS011;5195;48.562;9.192;2023-05-10T06:07:49;1.27;;;0.90;;
10299;SDS011;5195;48.562;9.192;2023-05-10T06:10:14;1.43;;;1.30;;
10299;SDS011;5195;48.562;9.192;2023-05-10T06:12:41;2.60;;;1.20;;
10299;SDS011;5195;48.562;9.192;2023-05-10T06:15:06;1.67;;;1.37;;
10299;SDS011;5195;48.562;9.192;2023-05-10T06:17:32;1.40;;;1.27;;
10299;SDS011;5195;48.562;9.192;2023-05-10T06:19:58;2.05;;;1.48;;
10299;SDS011;5195;48.562;9.192;2023-05-10T06:22:23;1.33;;;1.23;;
10299;SDS011;5195;48.562;9.192;2023-05-10T06:24:49;1.87;;;1.60;;
10299;SDS011;5195;48.562;9.192;2023-05-10T06:27:14;1.40;;;1.30;;
10299;SDS011;5195;48.562;9.192;2023-05-10T06:29:41;2.57;;;1.50;;
10299;SDS011;5195;48.562;9.192;2023-05-10T06:32:06;2.10;;;1.43;;
10299;SDS011;5195;48.562;9.192;2023-05-10T06:34:32;2.03;;;1.50;;
10299;SDS011;5195;48.562;9.192;2023-05-10T06:36:57;1.87;;;1.30;;
10299;SDS011;5195;48.562;9.192;2023-05-10T06:39:23;1.10;;;1.10;;
10299;SDS011;5195;48.562;9.192;2023-05-10T06:41:49;2.93;;;1.30;;
10299;SDS011;5195;48.562;9.192;2023-05-10T06:44:14;2.53;;;1.17;;
10299;SDS011;5195;48.562;9.192;2023-05-10T06:46:41;0.97;;;0.93;;
10299;SDS011;5195;48.562;9.192;2023-05-10T06:49:08;0.90;;;0.90;;
10299;SDS011;5195;48.562;9.192;2023-05-10T06:51:33;0.97;;;0.90;;
10299;SDS011;5195;48.562;9.192;2023-05-10T06:53:59;0.83;;;0.80;;
10299;SDS011;5195;48.562;9.192;2023-05-10T06:56:24;1.80;;;0.80;;
10299;SDS011;5195;48.562;9.192;2023-05-10T06:58:51;1.85;;;1.00;;
10299;SDS011;5195;48.562;9.192;2023-05-10T07:01:16;2.33;;;1.10;;
10299;SDS011;5195;48.562;9.192;2023-05-10T07:03:42;0.93;;;0.90;;
10299;SDS011;5195;48.562;9.192;2023-05-10T07:06:07;0.95;;;0.90;;
10299;SDS011;5195;48.562;9.192;2023-05-10T07:08:33;0.93;;;0.93;;
10299;SDS011;5195;48.562;9.192;2023-05-10T07:11:02;0.80;;;0.80;;
10299;SDS011;5195;48.562;9.192;2023-05-10T07:13:27;1.13;;;0.80;;
10299;SDS011;5195;48.562;9.192;2023-05-10T07:15:53;0.83;;;0.83;;
10299;SDS011;5195;48.562;9.192;2023-05-10T07:18:19;1.12;;;0.90;;
10299;SDS011;5195;48.562;9.192;2023-05-10T07:20:45;1.53;;;1.00;;
10299;SDS011;5195;48.562;9.192;2023-05-10T07:23:10;1.37;;;0.80;;
10299;SDS011;5195;48.562;9.192;2023-05-10T07:25:36;0.70;;;0.62;;
10299;SDS011;5195;48.562;9.192;2023-05-10T07:28:02;0.93;;;0.93;;
10299;SDS011;5195;48.562;9.192;2023-05-10T07:30:27;1.00;;;1.00;;
10299;SDS011;5195;48.562;9.192;2023-05-10T07:32:53;1.00;;;1.00;;
10299;SDS011;5195;48.562;9.192;2023-05-10T07:35:18;0.80;;;0.80;;
10299;SDS011;5195;48.562;9.192;2023-05-10T07:37:44;1.10;;;1.00;;
10299;SDS011;5195;48.562;9.192;2023-05-10T07:40:09;0.70;;;0.70;;
10299;SDS011;5195;48.562;9.192;2023-05-10T07:42:36;1.03;;;0.93;;
10299;SDS011;5195;48.562;9.192;2023-05-10T07:45:02;1.20;;;1.10;;
10299;SDS011;5195;48.562;9.192;2023-05-10T07:47:27;1.00;;;0.80;;
10299;SDS011;5195;48.562;9.192;2023-05-10T07:49:53;1.90;;;0.90;;
10299;SDS011;5195;48.562;9.192;2023-05-10T07:52:18;0.90;;;0.80;;
10299;SDS011;5195;48.562;9.192;2023-05-10T07:54:44;1.10;;;1.05;;
10299;SDS011;5195;48.562;9.192;2023-05-10T07:57:10;1.05;;;1.00;;
10299;SDS011;5195;48.562;9.192;2023-05-10T07:59:36;1.15;;;0.80;;
10299;SDS011;5195;48.562;9.192;2023-05-10T08:02:01;3.13;;;0.80;;
10299;SDS011;5195;48.562;9.192;2023-05-10T08:04:27;0.73;;;0.68;;
10299;SDS011;5195;48.562;9.192;2023-05-10T08:06:53;0.57;;;0.50;;
10299;SDS011;5195;48.562;9.192;2023-05-10T08:09:18;1.65;;;0.70;;
10299;SDS011;5195;48.562;9.192;2023-05-10T08:11:44;0.63;;;0.63;;
10299;SDS011;5195;48.562;9.192;2023-05-10T08:14:09;0.68;;;0.43;;
10299;SDS011;5195;48.562;9.192;2023-05-10T08:16:35;1.57;;;0.60;;
10299;SDS011;5195;48.562;9.192;2023-05-10T08:19:00;0.90;;;0.70;;
10299;SDS011;5195;48.562;9.192;2023-05-10T08:21:26;1.35;;;0.60;;
10299;SDS011;5195;48.562;9.192;2023-05-10T08:23:52;0.80;;;0.80;;
10299;SDS011;5195;48.562;9.192;2023-05-10T08:26:17;0.87;;;0.60;;
10299;SDS011;5195;48.562;9.192;2023-05-10T08:28:43;1.33;;;0.60;;
10299;SDS011;5195;48.562;9.192;2023-05-10T08:31:08;0.47;;;0.47;;
10299;SDS011;5195;48.562;9.192;2023-05-10T08:33:34;0.80;;;0.67;;
10299;SDS011;5195;48.562;9.192;2023-05-10T08:36:00;1.20;;;0.60;;
10299;SDS011;5195;48.562;9.192;2023-05-10T08:38:26;1.47;;;0.70;;
10299;SDS011;5195;48.562;9.192;2023-05-10T08:40:51;0.70;;;0.60;;
10299;SDS011;5195;48.562;9.192;2023-05-10T08:43:17;1.80;;;0.60;;
10299;SDS011;5195;48.562;9.192;2023-05-10T08:45:43;1.13;;;0.70;;
10299;SDS011;5195;48.562;9.192;2023-05-10T08:48:09;0.63;;;0.63;;
10299;SDS011;5195;48.562;9.192;2023-05-10T08:50:38;1.05;;;1.05;;
10299;SDS011;5195;48.562;9.192;2023-05-10T08:53:10;0.70;;;0.68;;
10299;SDS011;5195;48.562;9.192;2023-05-10T08:55:32;0.82;;;0.60;;
10299;SDS011;5195;48.562;9.192;2023-05-10T08:57:58;3.50;;;0.80;;
10299;SDS011;5195;48.562;9.192;2023-05-10T09:00:23;1.50;;;0.47;;
10299;SDS011;5195;48.562;9.192;2023-05-10T09:02:49;0.95;;;0.60;;
10299;SDS011;5195;48.562;9.192;2023-05-10T09:05:14;1.27;;;0.60;;
10299;SDS011;5195;48.562;9.192;2023-05-10T09:07:40;1.73;;;0.40;;
10299;SDS011;5195;48.562;9.192;2023-05-10T09:10:06;0.60;;;0.60;;
10299;SDS011;5195;48.562;9.192;2023-05-10T09:12:32;0.40;;;0.40;;
10299;SDS011;5195;48.562;9.192;2023-05-10T09:14:59;0.60;;;0.60;;
10299;SDS011;5195;48.562;9.192;2023-05-10T09:17:24;0.63;;;0.63;;
10299;SDS011;5195;48.562;9.192;2023-05-10T09:19:49;0.53;;;0.53;;
10299;SDS011;5195;48.562;9.192;2023-05-10T09:22:16;0.47;;;0.47;;
10299;SDS011;5195;48.562;9.192;2023-05-10T09:24:42;0.57;;;0.50;;
10299;SDS011;5195;48.562;9.192;2023-05-10T09:27:07;0.65;;;0.50;;
10299;SDS011;5195;48.562;9.192;2023-05-10T09:29:42;0.60;;;0.50;;
10299;SDS011;5195;48.562;9.192;2023-05-10T09:32:08;0.23;;;0.23;;
10299;SDS011;5195;48.562;9.192;2023-05-10T09:34:33;0.60;;;0.30;;
10299;SDS011;5195;48.562;9.192;2023-05-10T09:37:01;0.55;;;0.50;;
10299;SDS011;5195;48.562;9.192;2023-05-10T09:39:35;0.50;;;0.30;;
10299;SDS011;5195;48.562;9.192;2023-05-10T09:42:01;0.60;;;0.30;;
10299;SDS011;5195;48.562;9.192;2023-05-10T09:44:25;0.50;;;0.30;;
10299;SDS011;5195;48.562;9.192;2023-05-10T09:46:51;1.12;;;0.40;;
10299;SDS011;5195;48.562;9.192;2023-05-10T09:49:16;0.50;;;0.30;;
10299;SDS011;5195;48.562;9.192;2023-05-10T09:51:42;0.30;;;0.30;;
10299;SDS011;5195;48.562;9.192;2023-05-10T09:54:09;0.50;;;0.50;;
10299;SDS011;5195;48.562;9.192;2023-05-10T09:56:34;0.30;;;0.30;;
10299;SDS011;5195;48.562;9.192;2023-05-10T09:59:03;0.50;;;0.40;;
10299;SDS011;5195;48.562;9.192;2023-05-10T10:01:29;0.30;;;0.30;;
10299;SDS011;5195;48.562;9.192;2023-05-10T10:03:55;0.40;;;0.40;;
10299;SDS011;5195;48.562;9.192;2023-05-10T10:06:20;0.30;;;0.30;;
10299;SDS011;5195;48.562;9.192;2023-05-10T10:08:46;0.32;;;0.32;;
10299;SDS011;5195;48.562;9.192;2023-05-10T10:11:12;0.47;;;0.20;;
10299;SDS011;5195;48.562;9.192;2023-05-10T10:13:37;0.30;;;0.30;;
10299;SDS011;5195;48.562;9.192;2023-05-10T10:16:03;1.13;;;0.30;;
10299;SDS011;5195;48.562;9.192;2023-05-10T10:18:28;0.50;;;0.30;;
10299;SDS011;5195;48.562;9.192;2023-05-10T10:20:54;1.12;;;0.30;;
10299;SDS011;5195;48.562;9.192;2023-05-10T10:23:20;1.55;;;0.22;;
10299;SDS011;5195;48.562;9.192;2023-05-10T10:34:38;0.60;;;0.50;;
10299;SDS011;5195;48.562;9.192;2023-05-10T10:37:05;1.80;;;0.47;;
10299;SDS011;5195;48.562;9.192;2023-05-10T10:39:31;0.40;;;0.40;;
10299;SDS011;5195;48.562;9.192;2023-05-10T10:41:57;1.45;;;0.30;;
10299;SDS011;5195;48.562;9.192;2023-05-10T10:44:24;0.40;;;0.40;;
10299;SDS011;5195;48.562;9.192;2023-05-10T10:47:36;0.70;;;0.70;;
10299;SDS011;5195;48.562;9.192;2023-05-10T10:52:15;0.73;;;0.50;;
10299;SDS011;5195;48.562;9.192;2023-05-10T10:54:49;0.83;;;0.40;;
10299;SDS011;5195;48.562;9.192;2023-05-10T10:57:17;0.63;;;0.50;;
10299;SDS011;5195;48.562;9.192;2023-05-10T10:59:43;0.60;;;0.60;;
10299;SDS011;5195;48.562;9.192;2023-05-10T11:02:09;0.47;;;0.45;;
10299;SDS011;5195;48.562;9.192;2023-05-10T11:04:42;3.17;;;1.23;;
10299;SDS011;5195;48.562;9.192;2023-05-10T11:07:18;2.53;;;1.30;;
10299;SDS011;5195;48.562;9.192;2023-05-10T11:09:43;2.42;;;1.00;;
10299;SDS011;5195;48.562;9.192;2023-05-10T11:12:08;3.20;;;1.20;;
10299;SDS011;5195;48.562;9.192;2023-05-10T11:14:34;0.60;;;0.60;;
10299;SDS011;5195;48.562;9.192;2023-05-10T11:17:00;2.20;;;0.70;;
10299;SDS011;5195;48.562;9.192;2023-05-10T11:19:27;1.77;;;0.80;;
10299;SDS011;5195;48.562;9.192;2023-05-10T11:21:51;1.55;;;0.40;;
10299;SDS011;5195;48.562;9.192;2023-05-10T11:24:19;1.23;;;0.40;;
10299;SDS011;5195;48.562;9.192;2023-05-10T11:26:42;1.00;;;0.60;;
10299;SDS011;5195;48.562;9.192;2023-05-10T11:29:07;7.30;;;0.70;;
10299;SDS011;5195;48.562;9.192;2023-05-10T11:31:33;1.83;;;0.55;;
10299;SDS011;5195;48.562;9.192;2023-05-10T11:33:59;0.65;;;0.60;;
10299;SDS011;5195;48.562;9.192;2023-05-10T11:36:35;1.80;;;0.70;;
10299;SDS011;5195;48.562;9.192;2023-05-10T11:39:00;0.80;;;0.70;;
10299;SDS011;5195;48.562;9.192;2023-05-10T11:41:29;0.87;;;0.70;;
10299;SDS011;5195;48.562;9.192;2023-05-10T11:43:52;1.83;;;0.60;;
10299;SDS011;5195;48.562;9.192;2023-05-10T11:46:18;0.70;;;0.60;;
10299;SDS011;5195;48.562;9.192;2023-05-10T11:48:43;0.77;;;0.62;;
10299;SDS011;5195;48.562;9.192;2023-05-10T11:51:09;1.63;;;0.70;;
10299;SDS011;5195;48.562;9.192;2023-05-10T11:53:34;2.40;;;0.70;;
10299;SDS011;5195;48.562;9.192;2023-05-10T11:56:10;1.63;;;0.80;;
10299;SDS011;5195;48.562;9.192;2023-05-10T11:58:34;1.83;;;0.77;;
10299;SDS011;5195;48.562;9.192;2023-05-10T12:01:00;1.10;;;0.82;;
10299;SDS011;5195;48.562;9.192;2023-05-10T12:03:25;0.80;;;0.80;;
10299;SDS011;5195;48.562;9.192;2023-05-10T12:05:52;1.25;;;0.73;;
10299;SDS011;5195;48.562;9.192;2023-05-10T12:08:20;0.93;;;0.70;;
10299;SDS011;5195;48.562;9.192;2023-05-10T12:10:43;0.80;;;0.80;;
10299;SDS011;5195;48.562;9.192;2023-05-10T12:13:12;1.50;;;1.40;;
10299;SDS011;5195;48.562;9.192;2023-05-10T12:15:38;1.70;;;0.80;;
10299;SDS011;5195;48.562;9.192;2023-05-10T12:18:03;1.67;;;0.90;;
10299;SDS011;5195;48.562;9.192;2023-05-10T12:20:29;0.73;;;0.70;;
10299;SDS011;5195;48.562;9.192;2023-05-10T12:22:56;0.88;;;0.88;;
10299;SDS011;5195;48.562;9.192;2023-05-10T12:25:21;1.20;;;0.70;;
10299;SDS011;5195;48.562;9.192;2023-05-10T12:27:54;1.23;;;1.12;;
10299;SDS011;5195;48.562;9.192;2023-05-10T12:30:20;0.70;;;0.70;;
10299;SDS011;5195;48.562;9.192;2023-05-10T12:32:45;1.40;;;0.60;;
10299;SDS011;5195;48.562;9.192;2023-05-10T12:35:11;1.02;;;0.98;;
10299;SDS011;5195;48.562;9.192;2023-05-10T12:37:37;1.33;;;0.87;;
10299;SDS011;5195;48.562;9.192;2023-05-10T12:40:02;4.10;;;0.70;;
10299;SDS011;5195;48.562;9.192;2023-05-10T12:42:28;1.33;;;0.80;;
10299;SDS011;5195;48.562;9.192;2023-05-10T12:44:56;1.50;;;0.90;;
10299;SDS011;5195;48.562;9.192;2023-05-10T12:47:23;1.53;;;1.43;;
10299;SDS011;5195;48.562;9.192;2023-05-10T12:49:48;1.50;;;0.80;;
10299;SDS011;5195;48.562;9.192;2023-05-10T12:52:15;1.50;;;0.60;;
10299;SDS011;5195;48.562;9.192;2023-05-10T12:54:40;0.73;;;0.73;;
10299;SDS011;5195;48.562;9.192;2023-05-10T12:57:06;0.70;;;0.60;;
10299;SDS011;5195;48.562;9.192;2023-05-10T12:59:31;1.00;;;0.80;;
10299;SDS011;5195;48.562;9.192;2023-05-10T13:01:57;1.08;;;0.98;;
10299;SDS011;5195;48.562;9.192;2023-05-10T13:04:23;0.60;;;0.53;;
10299;SDS011;5195;48.562;9.192;2023-05-10T13:06:48;0.80;;;0.70;;
10299;SDS011;5195;48.562;9.192;2023-05-10T13:09:14;1.08;;;0.70;;
10299;SDS011;5195;48.562;9.192;2023-05-10T13:11:40;0.60;;;0.50;;
10299;SDS011;5195;48.562;9.192;2023-05-10T13:14:06;0.70;;;0.67;;
10299;SDS011;5195;48.562;9.192;2023-05-10T13:16:31;0.80;;;0.70;;
10299;SDS011;5195;48.562;9.192;2023-05-10T13:18:57;2.27;;;0.90;;
10299;SDS011;5195;48.562;9.192;2023-05-10T13:21:23;0.80;;;0.80;;
10299;SDS011;5195;48.562;9.192;2023-05-10T13:23:48;0.63;;;0.63;;
10299;SDS011;5195;48.562;9.192;2023-05-10T13:26:16;2.00;;;0.83;;
10299;SDS011;5195;48.562;9.192;2023-05-10T13:28:43;1.27;;;1.17;;
10299;SDS011;5195;48.562;9.192;2023-05-10T13:31:07;2.15;;;0.90;;
10299;SDS011;5195;48.562;9.192;2023-05-10T13:33:34;0.70;;;0.70;;
10299;SDS011;5195;48.562;9.192;2023-05-10T13:35:59;1.70;;;0.87;;
10299;SDS011;5195;48.562;9.192;2023-05-10T13:38:25;1.12;;;0.80;;
10299;SDS011;5195;48.562;9.192;2023-05-10T13:40:50;1.60;;;0.90;;
10299;SDS011;5195;48.562;9.192;2023-05-10T13:43:17;1.80;;;0.70;;
10299;SDS011;5195;48.562;9.192;2023-05-10T13:45:43;1.07;;;0.80;;
10299;SDS011;5195;48.562;9.192;2023-05-10T13:48:08;1.60;;;0.75;;
10299;SDS011;5195;48.562;9.192;2023-05-10T13:50:34;1.50;;;0.73;;
10299;SDS011;5195;48.562;9.192;2023-05-10T13:52:59;1.83;;;0.80;;
10299;SDS011;5195;48.562;9.192;2023-05-10T13:55:26;2.87;;;0.90;;
10299;SDS011;5195;48.562;9.192;2023-05-10T13:57:53;1.93;;;0.90;;
10299;SDS011;5195;48.562;9.192;2023-05-10T14:00:19;2.37;;;1.10;;
10299;SDS011;5195;48.562;9.192;2023-05-10T14:02:46;0.90;;;0.75;;
10299;SDS011;5195;48.562;9.192;2023-05-10T14:05:11;1.37;;;0.80;;
10299;SDS011;5195;48.562;9.192;2023-05-10T14:07:37;0.85;;;0.80;;
10299;SDS011;5195;48.562;9.192;2023-05-10T14:10:02;2.80;;;1.00;;
10299;SDS011;5195;48.562;9.192;2023-05-10T14:12:28;1.85;;;0.90;;
10299;SDS011;5195;48.562;9.192;2023-05-10T14:14:56;0.57;;;0.57;;
10299;SDS011;5195;48.562;9.192;2023-05-10T14:17:22;0.80;;;0.80;;
10299;SDS011;5195;48.562;9.192;2023-05-10T14:19:47;2.27;;;0.70;;
10299;SDS011;5195;48.562;9.192;2023-05-10T14:22:13;2.00;;;0.80;;
10299;SDS011;5195;48.562;9.192;2023-05-10T14:24:39;0.73;;;0.65;;
10299;SDS011;5195;48.562;9.192;2023-05-10T14:27:04;1.00;;;0.80;;
10299;SDS011;5195;48.562;9.192;2023-05-10T14:29:30;0.97;;;0.70;;
10299;SDS011;5195;48.562;9.192;2023-05-10T14:31:55;0.62;;;0.62;;
10299;SDS011;5195;48.562;9.192;2023-05-10T14:34:22;2.00;;;0.70;;
10299;SDS011;5195;48.562;9.192;2023-05-10T14:36:48;0.90;;;0.88;;
10299;SDS011;5195;48.562;9.192;2023-05-10T14:39:13;1.70;;;1.00;;
10299;SDS011;5195;48.562;9.192;2023-05-10T14:41:40;2.30;;;1.02;;
10299;SDS011;5195;48.562;9.192;2023-05-10T14:44:08;1.33;;;0.80;;
10299;SDS011;5195;48.562;9.192;2023-05-10T14:46:34;1.20;;;1.10;;
10299;SDS011;5195;48.562;9.192;2023-05-10T14:48:59;0.53;;;0.53;;
10299;SDS011;5195;48.562;9.192;2023-05-10T14:51:26;1.23;;;0.80;;
10299;SDS011;5195;48.562;9.192;2023-05-10T14:53:51;2.00;;;0.90;;
10299;SDS011;5195;48.562;9.192;2023-05-10T14:56:17;1.20;;;1.00;;
10299;SDS011;5195;48.562;9.192;2023-05-10T14:58:42;1.15;;;0.95;;
10299;SDS011;5195;48.562;9.192;2023-05-10T15:01:08;1.87;;;0.80;;
10299;SDS011;5195;48.562;9.192;2023-05-10T15:03:33;1.10;;;0.97;;
10299;SDS011;5195;48.562;9.192;2023-05-10T15:05:59;2.20;;;1.07;;
10299;SDS011;5195;48.562;9.192;2023-05-10T15:08:25;1.25;;;0.90;;
10299;SDS011;5195;48.562;9.192;2023-05-10T15:10:51;0.60;;;0.60;;
10299;SDS011;5195;48.562;9.192;2023-05-10T15:13:16;1.17;;;1.08;;